createdAt,value
2022-08-16T00:01:43.382Z,9.40
2022-08-16T00:06:44.269Z,9.75
2022-08-16T00:11:44.458Z,9.18
2022-08-16T00:17:00.717Z,8.90
2022-08-16T00:22:15.252Z,9.60
2022-08-16T00:27:17.657Z,10.40
2022-08-16T00:32:18.137Z,9.52
2022-08-16T00:37:18.731Z,9.57
2022-08-16T00:42:29.676Z,10.25
2022-08-16T00:47:30.292Z,8.98
2022-08-16T00:52:31.643Z,9.60
2022-08-16T00:57:58.389Z,9.43
2022-08-16T01:02:53.068Z,11.20
2022-08-16T01:08:35.951Z,9.50
2022-08-16T01:13:37.945Z,9.52
2022-08-16T01:18:45.952Z,9.80
2022-08-16T01:24:51.870Z,9.98
2022-08-16T01:29:57.789Z,9.77
2022-08-16T01:35:07.944Z,9.30
2022-08-16T01:40:08.687Z,9.75
2022-08-16T01:45:07.297Z,10.10
2022-08-16T01:50:43.440Z,11.32
2022-08-16T01:55:53.788Z,10.02
2022-08-16T02:00:57.953Z,10.77
2022-08-16T02:06:11.377Z,10.15
2022-08-16T02:11:09.741Z,10.90
2022-08-16T02:16:18.523Z,9.65
2022-08-16T02:21:31.215Z,10.57
2022-08-16T02:26:34.554Z,10.18
2022-08-16T02:32:03.200Z,10.43
2022-08-16T02:36:59.273Z,10.70
2022-08-16T02:41:59.459Z,10.65
2022-08-16T02:46:57.838Z,11.43
2022-08-16T02:52:00.775Z,10.90
2022-08-16T02:57:00.572Z,11.48
2022-08-16T03:02:02.530Z,10.65
2022-08-16T03:07:11.772Z,11.43
2022-08-16T03:12:16.577Z,10.93
2022-08-16T03:17:18.424Z,10.43
2022-08-16T03:22:28.191Z,10.55
2022-08-16T03:27:36.393Z,10.90
2022-08-16T03:32:38.489Z,11.40
2022-08-16T03:38:03.273Z,12.52
2022-08-16T03:43:20.221Z,10.80
2022-08-16T03:48:36.129Z,11.32
2022-08-16T03:53:59.416Z,11.95
2022-08-16T03:59:04.189Z,10.75
2022-08-16T04:04:10.727Z,11.10
2022-08-16T04:09:17.447Z,11.10
2022-08-16T04:14:32.557Z,10.73
2022-08-16T04:19:35.222Z,10.25
2022-08-16T04:24:34.697Z,10.60
2022-08-16T04:29:44.067Z,11.70
2022-08-16T04:34:50.713Z,12.30
2022-08-16T04:39:55.693Z,13.68
2022-08-16T04:44:58.625Z,12.77
2022-08-16T04:50:18.233Z,12.90
2022-08-16T04:55:38.719Z,13.10
2022-08-16T05:00:41.530Z,12.27
2022-08-16T05:05:55.274Z,13.00
2022-08-16T05:11:00.369Z,11.80
2022-08-16T05:16:02.589Z,12.27
2022-08-16T05:21:09.604Z,13.20
2022-08-16T05:26:20.091Z,12.27
2022-08-16T05:31:21.813Z,11.88
2022-08-16T05:36:22.796Z,13.23
2022-08-16T05:41:44.565Z,13.10
2022-08-16T05:46:45.513Z,14.85
2022-08-16T05:51:48.168Z,14.95
2022-08-16T05:56:50.770Z,16.58
2022-08-16T06:07:07.174Z,14.82
2022-08-16T06:12:12.792Z,14.60
2022-08-16T06:17:42.762Z,14.23
2022-08-16T06:22:57.886Z,14.98
2022-08-16T06:28:17.098Z,16.23
2022-08-16T06:33:44.942Z,15.45
2022-08-16T06:38:56.109Z,16.08
2022-08-16T06:44:21.634Z,13.48
2022-08-16T06:49:33.752Z,15.23
2022-08-16T06:54:37.419Z,13.82
2022-08-16T06:59:52.198Z,13.88
2022-08-16T07:05:15.547Z,16.70
2022-08-16T07:10:29.197Z,14.90
2022-08-16T07:15:31.944Z,15.82
2022-08-16T07:20:37.588Z,14.95
2022-08-16T07:25:56.771Z,13.15
2022-08-16T07:31:04.678Z,13.07
2022-08-16T07:36:10.451Z,12.25
2022-08-16T07:41:13.789Z,13.07
2022-08-16T07:46:37.761Z,14.20
2022-08-16T07:51:54.401Z,13.60
2022-08-16T07:56:59.372Z,13.02
2022-08-16T08:02:01.907Z,13.25
2022-08-16T08:12:31.840Z,10.35
2022-08-16T08:17:42.769Z,11.38
2022-08-16T08:23:06.649Z,11.25
2022-08-16T08:28:18.594Z,10.98
2022-08-16T08:33:21.097Z,11.63
2022-08-16T08:38:44.939Z,11.07
2022-08-16T08:43:43.321Z,10.98
2022-08-16T08:49:00.197Z,10.48
2022-08-16T08:54:20.583Z,10.05
2022-08-16T08:59:25.131Z,11.32
2022-08-16T09:04:29.603Z,12.20
2022-08-16T09:09:34.143Z,9.68
2022-08-16T09:14:49.524Z,8.07
2022-08-16T09:20:04.687Z,8.05
2022-08-16T09:25:11.223Z,8.95
2022-08-16T09:30:34.333Z,8.10
2022-08-16T09:35:42.845Z,8.80
2022-08-16T09:40:53.789Z,8.90
2022-08-16T09:45:54.571Z,7.90
2022-08-16T09:50:53.672Z,9.25
2022-08-16T09:55:58.799Z,8.20
2022-08-16T10:00:57.653Z,8.20
2022-08-16T10:06:00.232Z,8.37
2022-08-16T10:11:24.745Z,7.95
2022-08-16T10:16:26.082Z,8.38
2022-08-16T10:21:32.135Z,7.82
2022-08-16T10:27:20.626Z,8.00
2022-08-16T10:31:55.093Z,8.27
2022-08-16T10:36:59.840Z,8.30
2022-08-16T10:41:59.163Z,8.13
2022-08-16T10:46:58.981Z,8.02
2022-08-16T10:52:18.022Z,7.78
2022-08-16T10:57:24.379Z,7.50
2022-08-16T11:02:59.079Z,7.35
2022-08-16T11:07:52.227Z,7.72
2022-08-16T11:18:48.584Z,7.20
2022-08-16T11:23:14.462Z,6.57
2022-08-16T11:33:56.123Z,6.72
2022-08-16T11:39:04.994Z,6.50
2022-08-16T11:44:20.442Z,7.63
2022-08-16T11:49:41.738Z,6.97
2022-08-16T11:54:46.540Z,7.10
2022-08-16T11:59:57.218Z,6.10
2022-08-16T12:04:56.088Z,7.10
2022-08-16T12:15:06.708Z,6.20
2022-08-16T12:20:18.766Z,7.15
2022-08-16T12:25:25.437Z,6.20
2022-08-16T12:30:38.536Z,6.07
2022-08-16T12:35:42.161Z,6.15
2022-08-16T12:40:49.784Z,6.07
2022-08-16T12:45:56.152Z,5.82
2022-08-16T12:51:10.916Z,6.15
2022-08-16T12:56:21.468Z,5.82
2022-08-16T13:01:34.242Z,6.35
2022-08-16T13:06:44.470Z,5.97
2022-08-16T13:11:58.023Z,6.93
2022-08-16T13:17:18.391Z,6.28
2022-08-16T13:22:24.174Z,6.13
2022-08-16T13:28:02.823Z,6.28
2022-08-16T13:32:55.660Z,6.13
2022-08-16T13:43:57.977Z,5.68
2022-08-16T13:49:06.896Z,5.90
2022-08-16T13:54:08.572Z,5.57
2022-08-16T13:59:14.440Z,6.50
2022-08-16T14:04:45.271Z,6.32
2022-08-16T14:09:45.160Z,6.57
2022-08-16T14:14:50.846Z,6.65
2022-08-16T14:20:26.736Z,7.72
2022-08-16T14:25:26.925Z,7.20
2022-08-16T14:30:28.451Z,6.32
2022-08-16T14:35:48.798Z,6.60
2022-08-16T14:40:57.868Z,6.20
2022-08-16T14:46:07.399Z,8.15
2022-08-16T14:51:07.475Z,6.97
2022-08-16T14:56:06.844Z,9.43
2022-08-16T15:01:10.217Z,8.35
2022-08-16T15:06:16.663Z,7.07
2022-08-16T15:11:22.255Z,6.25
2022-08-16T15:16:33.478Z,6.75
2022-08-16T15:21:40.065Z,5.55
2022-08-16T15:26:45.207Z,5.53
2022-08-16T15:31:48.249Z,8.20
2022-08-16T15:36:46.110Z,10.70
2022-08-16T15:41:44.706Z,6.35
2022-08-16T15:47:02.776Z,18.70
2022-08-16T15:52:20.788Z,19.73
2022-08-16T15:57:41.294Z,6.78
2022-08-16T16:02:49.495Z,7.10
2022-08-16T16:07:56.442Z,7.90
2022-08-16T16:13:01.957Z,11.73
2022-08-16T16:18:09.402Z,6.72
2022-08-16T16:23:11.829Z,14.25
2022-08-16T16:29:05.181Z,5.83
2022-08-16T16:33:35.859Z,4.18
2022-08-16T16:38:42.643Z,3.72
2022-08-16T16:43:43.951Z,3.70
2022-08-16T16:48:45.574Z,3.95
2022-08-16T16:53:55.860Z,3.83
2022-08-16T16:58:57.168Z,3.83
2022-08-16T17:03:55.809Z,4.30
2022-08-16T17:08:58.930Z,3.80
2022-08-16T17:14:01.257Z,3.80
2022-08-16T17:24:33.153Z,6.93
2022-08-16T17:29:46.544Z,3.40
2022-08-16T17:34:50.512Z,3.75
2022-08-16T17:39:28.591Z,3.33
2022-08-16T17:40:38.033Z,3.78
2022-08-16T17:45:49.642Z,4.50
2022-08-16T17:50:56.307Z,4.40
2022-08-16T17:56:00.834Z,3.75
2022-08-16T18:01:39.140Z,4.15
2022-08-16T18:06:32.664Z,3.75
2022-08-16T18:11:40.998Z,4.20
2022-08-16T18:16:42.995Z,4.20
2022-08-16T18:22:02.070Z,4.25
2022-08-16T18:27:25.991Z,3.85
2022-08-16T18:32:32.450Z,7.18
2022-08-16T18:37:41.536Z,4.68
2022-08-16T18:42:41.071Z,3.85
2022-08-16T18:47:53.385Z,4.85
2022-08-16T18:53:05.153Z,4.40
2022-08-16T18:58:10.864Z,4.60
2022-08-16T19:03:33.983Z,3.85
2022-08-16T19:08:36.347Z,5.38
2022-08-16T19:13:37.716Z,5.47
2022-08-16T19:18:37.288Z,5.20
2022-08-16T19:23:39.584Z,5.20
2022-08-16T19:29:08.629Z,4.90
2022-08-16T19:34:09.043Z,4.93
2022-08-16T19:39:12.128Z,5.80
2022-08-16T19:44:13.460Z,5.13
2022-08-16T19:49:16.547Z,5.30
2022-08-16T19:54:20.690Z,5.22
2022-08-16T19:59:39.593Z,5.75
2022-08-16T20:04:39.995Z,5.80
2022-08-16T20:09:38.235Z,6.85
2022-08-16T20:14:39.491Z,6.03
2022-08-16T20:19:40.488Z,5.90
2022-08-16T20:24:38.701Z,5.93
2022-08-16T20:29:37.779Z,5.50
2022-08-16T20:34:41.633Z,5.40
2022-08-16T20:39:44.458Z,5.43
2022-08-16T20:44:42.596Z,6.07
2022-08-16T20:49:43.506Z,5.85
2022-08-16T20:54:41.939Z,5.22
2022-08-16T20:59:40.623Z,5.70
2022-08-16T21:04:46.639Z,4.72
2022-08-16T21:09:46.459Z,5.95
2022-08-16T21:14:45.135Z,6.03
2022-08-16T21:19:46.508Z,5.63
2022-08-16T21:24:46.368Z,5.82
2022-08-16T21:29:47.263Z,4.97
2022-08-16T21:34:46.930Z,4.82
2022-08-16T21:39:45.623Z,5.10
2022-08-16T21:44:44.776Z,5.25
2022-08-16T21:49:43.066Z,5.85
2022-08-16T21:54:44.439Z,5.55
2022-08-16T21:59:44.433Z,5.75
2022-08-16T22:04:47.411Z,5.35
2022-08-16T22:09:47.105Z,5.53
2022-08-16T22:15:03.004Z,5.63
2022-08-16T22:20:45.698Z,5.30
2022-08-16T22:25:54.231Z,5.35
2022-08-16T22:30:56.191Z,6.10
2022-08-16T22:35:59.843Z,6.00
2022-08-16T22:40:59.311Z,5.47
2022-08-16T22:46:00.768Z,5.60
2022-08-16T22:51:03.804Z,5.95
2022-08-16T22:56:02.628Z,5.38
2022-08-16T23:01:05.541Z,5.82
2022-08-16T23:06:05.271Z,6.40
2022-08-16T23:11:04.582Z,5.45
2022-08-16T23:16:10.751Z,5.28
2022-08-16T23:21:14.895Z,6.18
2022-08-16T23:26:43.914Z,6.40
2022-08-16T23:31:35.838Z,5.93
2022-08-16T23:36:37.332Z,5.78
2022-08-16T23:48:20.571Z,5.55
2022-08-16T23:53:27.106Z,5.85
2022-08-16T23:58:30.343Z,6.28
